sensor_id;sensor_type;location;lat;lon;timestamp;P1;durP1;ratioP1;P2;durP2;ratioP2
10440;SDS011;5268;49.346;9.522;2022-12-18T04:21:36;16.57;;;11.00;;
10440;SDS011;5268;49.346;9.522;2022-12-18T04:26:38;21.23;;;10.90;;
10440;SDS011;5268;49.346;9.522;2022-12-18T04:31:40;18.63;;;11.20;;
10440;SDS011;5268;49.346;9.522;2022-12-18T04:36:44;19.30;;;11.90;;
10440;SDS011;5268;49.346;9.522;2022-12-18T04:41:46;19.33;;;10.67;;
10440;SDS011;5268;49.346;9.522;2022-12-18T04:46:48;19.53;;;11.23;;
10440;SDS011;5268;49.346;9.522;2022-12-18T04:51:52;16.93;;;10.70;;
10440;SDS011;5268;49.346;9.522;2022-12-18T04:56:54;18.20;;;11.63;;
10440;SDS011;5268;49.346;9.522;2022-12-18T05:01:56;19.60;;;11.23;;
10440;SDS011;5268;49.346;9.522;2022-12-18T05:06:59;16.40;;;10.87;;
10440;SDS011;5268;49.346;9.522;2022-12-18T05:12:01;19.17;;;11.67;;
10440;SDS011;5268;49.346;9.522;2022-12-18T05:17:04;21.13;;;12.40;;
10440;SDS011;5268;49.346;9.522;2022-12-18T05:22:08;17.90;;;10.67;;
10440;SDS011;5268;49.346;9.522;2022-12-18T05:27:10;22.00;;;11.23;;
10440;SDS011;5268;49.346;9.522;2022-12-18T05:32:12;19.90;;;11.30;;
10440;SDS011;5268;49.346;9.522;2022-12-18T05:37:16;20.30;;;11.37;;
10440;SDS011;5268;49.346;9.522;2022-12-18T05:42:18;16.90;;;10.90;;
10440;SDS011;5268;49.346;9.522;2022-12-18T05:47:20;20.57;;;11.73;;
10440;SDS011;5268;49.346;9.522;2022-12-18T05:52:24;16.53;;;11.23;;
10440;SDS011;5268;49.346;9.522;2022-12-18T05:57:26;19.37;;;12.47;;
10440;SDS011;5268;49.346;9.522;2022-12-18T06:02:28;17.77;;;11.70;;
10440;SDS011;5268;49.346;9.522;2022-12-18T06:07:31;18.67;;;12.07;;
10440;SDS011;5268;49.346;9.522;2022-12-18T06:12:33;18.27;;;11.70;;
10440;SDS011;5268;49.346;9.522;2022-12-18T06:17:36;18.00;;;11.23;;
10440;SDS011;5268;49.346;9.522;2022-12-18T06:22:39;19.23;;;11.70;;
10440;SDS011;5268;49.346;9.522;2022-12-18T06:27:42;21.20;;;11.70;;
10440;SDS011;5268;49.346;9.522;2022-12-18T06:32:44;17.60;;;10.33;;
10440;SDS011;5268;49.346;9.522;2022-12-18T06:37:48;23.60;;;13.63;;
10440;SDS011;5268;49.346;9.522;2022-12-18T06:42:50;33.60;;;16.90;;
10440;SDS011;5268;49.346;9.522;2022-12-18T06:47:52;25.37;;;14.07;;
10440;SDS011;5268;49.346;9.522;2022-12-18T06:52:56;19.37;;;11.10;;
10440;SDS011;5268;49.346;9.522;2022-12-18T06:57:58;25.67;;;14.93;;
10440;SDS011;5268;49.346;9.522;2022-12-18T07:03:00;21.80;;;11.63;;
10440;SDS011;5268;49.346;9.522;2022-12-18T07:08:03;21.10;;;13.10;;
10440;SDS011;5268;49.346;9.522;2022-12-18T07:13:06;21.97;;;14.07;;
10440;SDS011;5268;49.346;9.522;2022-12-18T07:18:08;20.77;;;12.70;;
10440;SDS011;5268;49.346;9.522;2022-12-18T07:23:12;21.33;;;13.17;;
10440;SDS011;5268;49.346;9.522;2022-12-18T07:28:14;30.33;;;19.40;;
10440;SDS011;5268;49.346;9.522;2022-12-18T07:33:17;22.03;;;13.03;;
10440;SDS011;5268;49.346;9.522;2022-12-18T07:38:20;20.90;;;12.63;;
10440;SDS011;5268;49.346;9.522;2022-12-18T07:43:22;25.47;;;14.30;;
10440;SDS011;5268;49.346;9.522;2022-12-18T07:48:24;21.20;;;13.83;;
10440;SDS011;5268;49.346;9.522;2022-12-18T07:53:28;23.80;;;14.33;;
10440;SDS011;5268;49.346;9.522;2022-12-18T07:58:30;22.20;;;13.13;;
10440;SDS011;5268;49.346;9.522;2022-12-18T08:03:33;22.57;;;14.43;;
10440;SDS011;5268;49.346;9.522;2022-12-18T08:08:37;19.97;;;12.57;;
10440;SDS011;5268;49.346;9.522;2022-12-18T08:13:41;21.53;;;13.20;;
10440;SDS011;5268;49.346;9.522;2022-12-18T08:18:43;23.47;;;13.70;;
10440;SDS011;5268;49.346;9.522;2022-12-18T08:23:47;22.70;;;12.73;;
10440;SDS011;5268;49.346;9.522;2022-12-18T08:28:49;24.30;;;13.87;;
10440;SDS011;5268;49.346;9.522;2022-12-18T08:33:52;26.90;;;16.00;;
10440;SDS011;5268;49.346;9.522;2022-12-18T08:38:56;26.73;;;16.23;;
10440;SDS011;5268;49.346;9.522;2022-12-18T08:43:58;31.17;;;16.50;;
10440;SDS011;5268;49.346;9.522;2022-12-18T08:49:17;31.70;;;17.33;;
10440;SDS011;5268;49.346;9.522;2022-12-18T08:54:21;27.67;;;13.93;;
10440;SDS011;5268;49.346;9.522;2022-12-18T08:59:23;19.07;;;10.77;;
10440;SDS011;5268;49.346;9.522;2022-12-18T09:04:28;29.73;;;16.67;;
10440;SDS011;5268;49.346;9.522;2022-12-18T09:09:31;30.07;;;15.23;;
10440;SDS011;5268;49.346;9.522;2022-12-18T09:14:34;26.87;;;14.90;;
10440;SDS011;5268;49.346;9.522;2022-12-18T09:19:36;25.43;;;14.73;;
10440;SDS011;5268;49.346;9.522;2022-12-18T09:24:40;24.97;;;14.47;;
10440;SDS011;5268;49.346;9.522;2022-12-18T09:29:42;33.30;;;18.10;;
10440;SDS011;5268;49.346;9.522;2022-12-18T09:34:44;29.13;;;17.47;;
10440;SDS011;5268;49.346;9.522;2022-12-18T09:39:48;27.20;;;15.53;;
10440;SDS011;5268;49.346;9.522;2022-12-18T09:44:51;32.77;;;18.73;;
10440;SDS011;5268;49.346;9.522;2022-12-18T09:49:56;28.03;;;16.50;;
10440;SDS011;5268;49.346;9.522;2022-12-18T09:55:05;29.67;;;16.63;;
10440;SDS011;5268;49.346;9.522;2022-12-18T10:00:15;27.73;;;17.07;;
10440;SDS011;5268;49.346;9.522;2022-12-18T10:05:20;27.67;;;16.73;;
10440;SDS011;5268;49.346;9.522;2022-12-18T10:10:34;29.60;;;16.13;;
10440;SDS011;5268;49.346;9.522;2022-12-18T10:15:44;29.23;;;16.33;;
10440;SDS011;5268;49.346;9.522;2022-12-18T10:20:56;31.53;;;17.43;;
10440;SDS011;5268;49.346;9.522;2022-12-18T10:26:05;30.90;;;17.60;;
10440;SDS011;5268;49.346;9.522;2022-12-18T10:31:11;30.33;;;18.10;;
10440;SDS011;5268;49.346;9.522;2022-12-18T10:36:18;31.90;;;18.17;;
10440;SDS011;5268;49.346;9.522;2022-12-18T10:41:26;33.30;;;18.83;;
10440;SDS011;5268;49.346;9.522;2022-12-18T10:46:30;32.47;;;18.90;;
10440;SDS011;5268;49.346;9.522;2022-12-18T10:51:34;36.00;;;20.17;;
10440;SDS011;5268;49.346;9.522;2022-12-18T10:56:40;30.53;;;18.23;;
10440;SDS011;5268;49.346;9.522;2022-12-18T11:01:47;32.50;;;18.27;;
10440;SDS011;5268;49.346;9.522;2022-12-18T11:06:52;33.80;;;18.73;;
10440;SDS011;5268;49.346;9.522;2022-12-18T11:11:58;37.47;;;20.23;;
10440;SDS011;5268;49.346;9.522;2022-12-18T11:17:02;33.33;;;19.73;;
10440;SDS011;5268;49.346;9.522;2022-12-18T11:22:17;39.57;;;22.97;;
10440;SDS011;5268;49.346;9.522;2022-12-18T11:27:22;33.07;;;18.00;;
10440;SDS011;5268;49.346;9.522;2022-12-18T11:32:28;34.93;;;18.70;;
10440;SDS011;5268;49.346;9.522;2022-12-18T11:37:34;33.43;;;16.90;;
10440;SDS011;5268;49.346;9.522;2022-12-18T11:42:39;29.63;;;15.80;;
10440;SDS011;5268;49.346;9.522;2022-12-18T11:47:48;26.47;;;13.73;;
10440;SDS011;5268;49.346;9.522;2022-12-18T11:52:55;28.83;;;15.27;;
10440;SDS011;5268;49.346;9.522;2022-12-18T11:58:00;15.03;;;7.97;;
10440;SDS011;5268;49.346;9.522;2022-12-18T12:03:14;26.40;;;14.00;;
10440;SDS011;5268;49.346;9.522;2022-12-18T12:08:28;26.93;;;14.20;;
10440;SDS011;5268;49.346;9.522;2022-12-18T12:13:43;25.27;;;14.07;;
10440;SDS011;5268;49.346;9.522;2022-12-18T12:18:59;23.03;;;12.50;;
10440;SDS011;5268;49.346;9.522;2022-12-18T12:24:19;27.03;;;14.90;;
10440;SDS011;5268;49.346;9.522;2022-12-18T12:29:36;19.90;;;9.50;;
10440;SDS011;5268;49.346;9.522;2022-12-18T12:34:47;22.70;;;12.17;;
10440;SDS011;5268;49.346;9.522;2022-12-18T12:39:59;27.73;;;14.07;;
10440;SDS011;5268;49.346;9.522;2022-12-18T12:45:06;26.70;;;14.90;;
10440;SDS011;5268;49.346;9.522;2022-12-18T12:50:17;27.43;;;13.90;;
10440;SDS011;5268;49.346;9.522;2022-12-18T12:55:21;23.80;;;13.00;;
10440;SDS011;5268;49.346;9.522;2022-12-18T13:00:28;26.17;;;14.80;;
10440;SDS011;5268;49.346;9.522;2022-12-18T13:05:38;24.73;;;14.03;;
10440;SDS011;5268;49.346;9.522;2022-12-18T13:10:47;23.63;;;14.30;;
10440;SDS011;5268;49.346;9.522;2022-12-18T13:16:03;23.87;;;13.67;;
10440;SDS011;5268;49.346;9.522;2022-12-18T13:21:11;24.70;;;13.37;;
10440;SDS011;5268;49.346;9.522;2022-12-18T13:42:42;26.40;;;15.43;;
10440;SDS011;5268;49.346;9.522;2022-12-18T13:48:03;25.73;;;15.13;;
10440;SDS011;5268;49.346;9.522;2022-12-18T13:53:05;25.97;;;14.73;;
10440;SDS011;5268;49.346;9.522;2022-12-18T13:58:11;24.57;;;14.77;;
10440;SDS011;5268;49.346;9.522;2022-12-18T14:03:22;24.87;;;14.43;;
10440;SDS011;5268;49.346;9.522;2022-12-18T14:08:27;27.17;;;15.17;;
10440;SDS011;5268;49.346;9.522;2022-12-18T14:13:35;25.23;;;14.27;;
10440;SDS011;5268;49.346;9.522;2022-12-18T14:18:43;24.93;;;14.10;;
10440;SDS011;5268;49.346;9.522;2022-12-18T14:23:49;27.20;;;13.87;;
10440;SDS011;5268;49.346;9.522;2022-12-18T14:29:17;23.63;;;14.23;;
10440;SDS011;5268;49.346;9.522;2022-12-18T14:34:22;23.57;;;13.53;;
10440;SDS011;5268;49.346;9.522;2022-12-18T14:39:28;24.47;;;13.93;;
10440;SDS011;5268;49.346;9.522;2022-12-18T14:44:29;24.23;;;13.73;;
10440;SDS011;5268;49.346;9.522;2022-12-18T14:49:33;24.80;;;14.27;;
10440;SDS011;5268;49.346;9.522;2022-12-18T14:54:37;24.63;;;14.20;;
10440;SDS011;5268;49.346;9.522;2022-12-18T14:59:39;23.53;;;13.70;;
10440;SDS011;5268;49.346;9.522;2022-12-18T15:04:42;25.10;;;13.70;;
10440;SDS011;5268;49.346;9.522;2022-12-18T15:10:00;26.27;;;14.33;;
10440;SDS011;5268;49.346;9.522;2022-12-18T15:15:04;28.00;;;15.13;;
10440;SDS011;5268;49.346;9.522;2022-12-18T15:20:29;26.50;;;15.07;;
10440;SDS011;5268;49.346;9.522;2022-12-18T15:25:34;24.27;;;13.60;;
10440;SDS011;5268;49.346;9.522;2022-12-18T15:30:38;25.23;;;14.40;;
10440;SDS011;5268;49.346;9.522;2022-12-18T15:35:42;29.00;;;16.13;;
10440;SDS011;5268;49.346;9.522;2022-12-18T15:40:44;29.33;;;16.80;;
10440;SDS011;5268;49.346;9.522;2022-12-18T15:45:46;27.90;;;16.73;;
10440;SDS011;5268;49.346;9.522;2022-12-18T15:50:49;29.37;;;15.67;;
10440;SDS011;5268;49.346;9.522;2022-12-18T15:55:53;25.00;;;14.30;;
10440;SDS011;5268;49.346;9.522;2022-12-18T16:01:13;27.50;;;15.57;;
10440;SDS011;5268;49.346;9.522;2022-12-18T16:06:17;27.93;;;14.80;;
10440;SDS011;5268;49.346;9.522;2022-12-18T16:11:20;26.37;;;14.60;;
10440;SDS011;5268;49.346;9.522;2022-12-18T16:16:37;26.20;;;13.60;;
10440;SDS011;5268;49.346;9.522;2022-12-18T16:21:41;25.83;;;14.27;;
10440;SDS011;5268;49.346;9.522;2022-12-18T16:26:43;26.67;;;15.77;;
10440;SDS011;5268;49.346;9.522;2022-12-18T16:31:45;24.50;;;13.27;;
10440;SDS011;5268;49.346;9.522;2022-12-18T16:36:49;25.20;;;13.40;;
10440;SDS011;5268;49.346;9.522;2022-12-18T16:41:52;26.80;;;16.10;;
10440;SDS011;5268;49.346;9.522;2022-12-18T16:46:54;31.03;;;17.43;;
10440;SDS011;5268;49.346;9.522;2022-12-18T16:52:03;28.57;;;16.67;;
10440;SDS011;5268;49.346;9.522;2022-12-18T16:57:05;26.57;;;15.80;;
10440;SDS011;5268;49.346;9.522;2022-12-18T17:02:10;25.67;;;15.50;;
10440;SDS011;5268;49.346;9.522;2022-12-18T17:07:17;29.57;;;16.60;;
10440;SDS011;5268;49.346;9.522;2022-12-18T17:12:19;25.67;;;14.70;;
10440;SDS011;5268;49.346;9.522;2022-12-18T17:17:21;25.43;;;14.40;;
10440;SDS011;5268;49.346;9.522;2022-12-18T17:22:25;28.33;;;15.53;;
10440;SDS011;5268;49.346;9.522;2022-12-18T17:27:27;27.23;;;15.80;;
10440;SDS011;5268;49.346;9.522;2022-12-18T17:32:30;24.97;;;15.73;;
10440;SDS011;5268;49.346;9.522;2022-12-18T17:37:33;27.70;;;16.70;;
10440;SDS011;5268;49.346;9.522;2022-12-18T17:42:35;28.07;;;15.93;;
10440;SDS011;5268;49.346;9.522;2022-12-18T17:47:37;29.73;;;17.33;;
10440;SDS011;5268;49.346;9.522;2022-12-18T17:52:41;31.13;;;18.67;;
10440;SDS011;5268;49.346;9.522;2022-12-18T17:57:43;33.13;;;19.43;;
10440;SDS011;5268;49.346;9.522;2022-12-18T18:02:45;47.93;;;33.87;;
10440;SDS011;5268;49.346;9.522;2022-12-18T18:07:49;35.23;;;19.83;;
10440;SDS011;5268;49.346;9.522;2022-12-18T18:12:51;29.77;;;16.40;;
10440;SDS011;5268;49.346;9.522;2022-12-18T18:18:16;40.67;;;22.63;;
10440;SDS011;5268;49.346;9.522;2022-12-18T18:23:19;38.80;;;20.33;;
10440;SDS011;5268;49.346;9.522;2022-12-18T18:28:21;29.23;;;16.97;;
10440;SDS011;5268;49.346;9.522;2022-12-18T18:33:23;26.20;;;14.73;;
10440;SDS011;5268;49.346;9.522;2022-12-18T18:38:27;35.60;;;18.90;;
10440;SDS011;5268;49.346;9.522;2022-12-18T18:43:29;31.17;;;16.67;;
10440;SDS011;5268;49.346;9.522;2022-12-18T18:48:32;29.10;;;15.70;;
10440;SDS011;5268;49.346;9.522;2022-12-18T18:53:38;25.40;;;15.70;;
10440;SDS011;5268;49.346;9.522;2022-12-18T18:58:43;28.33;;;16.20;;
10440;SDS011;5268;49.346;9.522;2022-12-18T19:03:46;28.93;;;16.57;;
10440;SDS011;5268;49.346;9.522;2022-12-18T19:08:50;26.30;;;15.57;;
10440;SDS011;5268;49.346;9.522;2022-12-18T19:13:54;28.67;;;16.73;;
10440;SDS011;5268;49.346;9.522;2022-12-18T19:18:56;35.03;;;19.80;;
10440;SDS011;5268;49.346;9.522;2022-12-18T19:23:59;32.10;;;20.10;;
10440;SDS011;5268;49.346;9.522;2022-12-18T19:29:02;36.10;;;23.87;;
10440;SDS011;5268;49.346;9.522;2022-12-18T19:34:06;31.67;;;21.63;;
10440;SDS011;5268;49.346;9.522;2022-12-18T19:39:11;31.33;;;18.73;;
10440;SDS011;5268;49.346;9.522;2022-12-18T19:44:16;29.23;;;16.97;;
10440;SDS011;5268;49.346;9.522;2022-12-18T19:49:18;27.33;;;15.83;;
10440;SDS011;5268;49.346;9.522;2022-12-18T19:54:22;29.27;;;16.60;;
10440;SDS011;5268;49.346;9.522;2022-12-18T19:59:24;26.60;;;15.30;;
10440;SDS011;5268;49.346;9.522;2022-12-18T20:04:26;24.20;;;13.87;;
10440;SDS011;5268;49.346;9.522;2022-12-18T20:09:30;29.70;;;16.23;;
10440;SDS011;5268;49.346;9.522;2022-12-18T20:14:32;26.03;;;15.53;;
10440;SDS011;5268;49.346;9.522;2022-12-18T20:19:34;27.07;;;15.83;;
10440;SDS011;5268;49.346;9.522;2022-12-18T20:24:37;29.50;;;17.13;;
10440;SDS011;5268;49.346;9.522;2022-12-18T20:29:39;26.17;;;15.23;;
10440;SDS011;5268;49.346;9.522;2022-12-18T20:34:42;27.67;;;16.77;;
10440;SDS011;5268;49.346;9.522;2022-12-18T20:39:45;26.33;;;15.83;;
10440;SDS011;5268;49.346;9.522;2022-12-18T20:44:47;25.73;;;14.53;;
10440;SDS011;5268;49.346;9.522;2022-12-18T20:49:49;24.07;;;14.33;;
10440;SDS011;5268;49.346;9.522;2022-12-18T20:54:53;21.80;;;12.80;;
10440;SDS011;5268;49.346;9.522;2022-12-18T20:59:55;24.20;;;13.37;;
10440;SDS011;5268;49.346;9.522;2022-12-18T21:04:57;22.77;;;13.17;;
10440;SDS011;5268;49.346;9.522;2022-12-18T21:10:01;31.30;;;17.63;;
10440;SDS011;5268;49.346;9.522;2022-12-18T21:15:06;33.90;;;19.70;;
10440;SDS011;5268;49.346;9.522;2022-12-18T21:20:51;41.87;;;23.50;;
10440;SDS011;5268;49.346;9.522;2022-12-18T21:25:56;41.77;;;23.03;;
10440;SDS011;5268;49.346;9.522;2022-12-18T21:31:15;24.80;;;14.10;;
10440;SDS011;5268;49.346;9.522;2022-12-18T21:36:19;25.03;;;14.60;;
10440;SDS011;5268;49.346;9.522;2022-12-18T21:41:22;27.83;;;16.97;;
10440;SDS011;5268;49.346;9.522;2022-12-18T21:46:43;26.37;;;15.90;;
10440;SDS011;5268;49.346;9.522;2022-12-18T21:51:47;26.47;;;16.57;;
10440;SDS011;5268;49.346;9.522;2022-12-18T21:56:52;24.70;;;14.20;;
10440;SDS011;5268;49.346;9.522;2022-12-18T22:01:56;27.80;;;15.90;;
10440;SDS011;5268;49.346;9.522;2022-12-18T22:06:59;25.27;;;15.47;;
10440;SDS011;5268;49.346;9.522;2022-12-18T22:12:03;26.93;;;16.23;;
10440;SDS011;5268;49.346;9.522;2022-12-18T22:17:08;27.60;;;16.27;;
10440;SDS011;5268;49.346;9.522;2022-12-18T22:22:10;25.17;;;14.97;;
10440;SDS011;5268;49.346;9.522;2022-12-18T22:27:13;30.10;;;15.33;;
